Time;durP1;ratioP1;P1;durP2;ratioP2;P2;SDS_P1;SDS_P2;PMS_P1;PMS_P2;Temp;Humidity;BMP_temperature;BMP_pressure;BME280_temperature;BME280_humidity;BME280_pressure;Samples;Min_cycle;Max_cycle;Signal;HPM_P1;HPM_P2
2022/02/13 00:02:06;;;;;;;20.60;19.70;;;16.90;57.40;;;;;;5033557;28;20445;-46
2022/02/13 00:04:33;;;;;;;20.97;19.87;;;17.00;57.60;;;;;;5033473;28;20479;-45
2022/02/13 00:07:00;;;;;;;20.43;19.53;;;16.90;57.70;;;;;;5032915;28;20813;-46
2022/02/13 00:09:28;;;;;;;21.20;20.20;;;16.90;57.80;;;;;;5033315;28;20456;-47
2022/02/13 00:11:56;;;;;;;20.50;19.60;;;16.90;57.80;;;;;;5042627;28;20449;-45
2022/02/13 00:14:23;;;;;;;21.00;20.00;;;16.90;58.00;;;;;;5053387;28;20444;-48
2022/02/13 00:16:49;;;;;;;21.40;20.30;;;16.90;58.10;;;;;;5052862;28;20449;-47
2022/02/13 00:19:16;;;;;;;20.50;19.47;;;16.80;58.30;;;;;;5053204;28;20484;-44
2022/02/13 00:21:43;;;;;;;20.30;19.40;;;16.80;58.50;;;;;;5052934;28;20449;-43
2022/02/13 00:24:09;;;;;;;20.00;19.20;;;16.80;58.70;;;;;;5042479;28;20790;-44
2022/02/13 00:26:37;;;;;;;20.43;19.47;;;16.80;58.90;;;;;;5032978;28;20441;-45
2022/02/13 00:29:05;;;;;;;20.67;19.67;;;16.70;58.90;;;;;;5032848;28;20472;-44
2022/02/13 00:31:32;;;;;;;20.77;19.87;;;16.70;59.10;;;;;;5032987;28;20445;-44
2022/02/13 00:33:58;;;;;;;20.30;19.40;;;16.70;59.20;;;;;;5033301;28;20449;-47
2022/02/13 00:36:25;;;;;;;20.37;19.47;;;16.70;59.30;;;;;;5046895;28;20452;-46
2022/02/13 00:38:52;;;;;;;21.00;20.00;;;16.70;59.40;;;;;;5052635;28;20858;-47
2022/02/13 00:41:19;;;;;;;20.40;19.60;;;16.60;59.40;;;;;;5052811;28;20463;-46
2022/02/13 00:43:45;;;;;;;21.13;20.23;;;16.60;59.50;;;;;;5052648;28;20444;-44
2022/02/13 00:46:14;;;;;;;20.40;19.50;;;16.60;59.60;;;;;;5052497;28;20453;-45
2022/02/13 00:48:40;;;;;;;20.80;19.90;;;16.50;59.80;;;;;;5037772;28;20966;-44
2022/02/13 00:51:07;;;;;;;20.50;19.60;;;16.50;60.10;;;;;;5032682;28;20457;-44
2022/02/13 00:53:34;;;;;;;20.67;19.77;;;16.50;60.50;;;;;;5032731;28;20449;-46
2022/02/13 00:56:00;;;;;;;20.50;19.60;;;16.50;60.50;;;;;;5032442;28;20441;-46
2022/02/13 00:58:28;;;;;;;20.00;19.20;;;16.50;60.90;;;;;;5032428;28;20479;-47
2022/02/13 01:00:55;;;;;;;20.60;19.70;;;16.50;61.10;;;;;;5046378;28;20483;-48
2022/02/13 01:03:23;;;;;;;21.10;20.07;;;16.50;61.20;;;;;;5052007;28;20451;-49
2022/02/13 01:05:50;;;;;;;21.33;20.03;;;16.40;61.40;;;;;;5051994;28;20456;-48
2022/02/13 01:08:16;;;;;;;20.57;19.50;;;16.40;61.70;;;;;;5052283;28;20964;-46
2022/02/13 01:10:44;;;;;;;20.53;19.63;;;16.40;61.90;;;;;;5052040;28;20475;-45
2022/02/13 01:13:11;;;;;;;20.53;19.63;;;16.40;62.10;;;;;;5036318;28;21024;-46
2022/02/13 01:15:37;;;;;;;20.40;19.50;;;16.40;62.30;;;;;;5032058;28;20453;-50
2022/02/13 01:18:04;;;;;;;20.93;20.00;;;16.40;62.70;;;;;;5031397;28;20452;-49
2022/02/13 01:20:33;;;;;;;20.10;19.10;;;16.40;63.00;;;;;;5039118;28;20537;-49
2022/02/13 01:23:00;;;;;;;20.40;19.50;;;16.30;64.30;;;;;;5052046;28;20461;-48
2022/02/13 01:25:27;;;;;;;20.30;19.40;;;16.30;63.80;;;;;;5051705;28;20455;-47
2022/02/13 01:27:54;;;;;;;20.43;19.60;;;16.30;64.10;;;;;;5051823;28;20925;-46
2022/02/13 01:30:21;;;;;;;20.00;19.20;;;16.30;64.10;;;;;;5045909;28;20465;-43
2022/02/13 01:32:48;;;;;;;20.60;19.70;;;16.30;64.40;;;;;;5032041;28;20449;-47
2022/02/13 01:35:15;;;;;;;20.30;19.40;;;16.30;64.50;;;;;;5031897;28;20449;-49
2022/02/13 01:37:44;;;;;;;20.50;19.60;;;16.20;64.70;;;;;;5031853;28;20449;-44
2022/02/13 01:40:12;;;;;;;20.30;19.40;;;16.20;64.80;;;;;;5032022;28;20477;-47
2022/02/13 01:42:39;;;;;;;20.27;19.40;;;16.20;65.10;;;;;;5038986;28;20942;-45
2022/02/13 01:45:07;;;;;;;20.97;20.00;;;16.20;65.40;;;;;;5051672;28;20450;-45
2022/02/13 01:47:34;;;;;;;20.60;19.70;;;16.20;65.70;;;;;;5051415;28;20440;-47
2022/02/13 01:50:01;;;;;;;20.03;19.13;;;16.20;65.80;;;;;;5051963;28;20559;-47
2022/02/13 01:52:28;;;;;;;20.43;19.53;;;16.20;66.10;;;;;;5051502;28;20451;-46
2022/02/13 01:54:56;;;;;;;21.03;20.13;;;16.20;66.60;;;;;;5041636;28;20453;-47
2022/02/13 01:57:23;;;;;;;20.50;19.60;;;16.10;66.80;;;;;;5031520;28;21004;-46
2022/02/13 01:59:50;;;;;;;19.97;19.07;;;16.10;67.10;;;;;;5031696;28;20492;-46
2022/02/13 02:02:16;;;;;;;19.60;18.80;;;16.10;67.30;;;;;;5031640;28;20461;-49
2022/02/13 02:04:44;;;;;;;20.00;19.20;;;16.10;67.40;;;;;;5031571;28;20449;-50
2022/02/13 02:07:11;;;;;;;20.63;19.73;;;16.10;67.40;;;;;;5041628;28;20448;-48
2022/02/13 02:09:37;;;;;;;20.30;19.40;;;16.10;67.60;;;;;;5051398;28;21008;-47
2022/02/13 02:12:07;;;;;;;19.83;19.00;;;16.10;67.60;;;;;;5051350;28;20816;-47
2022/02/13 02:14:33;;;;;;;20.40;19.50;;;16.00;67.60;;;;;;5051377;28;20945;-46
2022/02/13 02:17:00;;;;;;;21.10;20.00;;;16.00;67.90;;;;;;5051258;28;20452;-44
2022/02/13 02:19:30;;;;;;;20.77;19.50;;;16.00;68.10;;;;;;5039689;28;20485;-46
2022/02/13 02:21:57;;;;;;;20.80;19.90;;;16.00;68.40;;;;;;5031564;28;20456;-47
2022/02/13 02:24:25;;;;;;;20.07;19.27;;;16.00;68.60;;;;;;5032474;28;20470;-51
2022/02/13 02:26:52;;;;;;;20.07;19.27;;;16.00;69.00;;;;;;5031117;28;20446;-47
2022/02/13 02:29:20;;;;;;;20.50;19.60;;;16.00;69.20;;;;;;5032682;28;20473;-49
2022/02/13 02:31:46;;;;;;;20.67;19.77;;;16.00;69.40;;;;;;5049911;28;20494;-46
2022/02/13 02:34:13;;;;;;;20.87;19.97;;;16.00;69.50;;;;;;5055039;28;20948;-45
2022/02/13 02:36:40;;;;;;;20.70;19.80;;;15.90;69.70;;;;;;5054887;28;20448;-46
2022/02/13 02:39:07;;;;;;;21.50;20.50;;;15.90;69.80;;;;;;5054767;28;20998;-44
2022/02/13 02:41:35;;;;;;;20.40;19.60;;;15.90;69.90;;;;;;5055102;28;20455;-46
2022/02/13 02:44:02;;;;;;;20.40;19.50;;;15.90;70.10;;;;;;5035497;28;20445;-46
2022/02/13 02:46:29;;;;;;;21.17;20.20;;;15.90;70.10;;;;;;5034802;28;20931;-45
2022/02/13 02:48:56;;;;;;;20.70;19.80;;;15.90;70.30;;;;;;5034789;28;20476;-44
2022/02/13 02:51:23;;;;;;;20.20;19.30;;;15.80;70.50;;;;;;5034995;28;20456;-45
2022/02/13 02:53:50;;;;;;;21.00;20.00;;;15.80;70.80;;;;;;5036708;28;20873;-47
2022/02/13 02:56:18;;;;;;;19.90;19.10;;;15.80;71.70;;;;;;5054485;28;20849;-46
2022/02/13 02:58:46;;;;;;;20.83;19.73;;;15.80;71.30;;;;;;5054491;28;20502;-45
2022/02/13 03:01:12;;;;;;;20.80;19.90;;;15.80;71.70;;;;;;5054721;28;20802;-46
2022/02/13 03:03:39;;;;;;;20.40;19.60;;;15.80;72.10;;;;;;5054496;28;20443;-46
2022/02/13 03:06:06;;;;;;;20.27;19.37;;;15.80;72.20;;;;;;5048239;28;20456;-49
2022/02/13 03:08:33;;;;;;;20.50;19.60;;;15.80;72.40;;;;;;5034515;28;20449;-45
2022/02/13 03:11:01;;;;;;;20.50;19.60;;;15.70;72.60;;;;;;5034665;28;20441;-47
2022/02/13 03:13:28;;;;;;;20.43;19.53;;;15.70;72.70;;;;;;5034416;28;20442;-48
2022/02/13 03:15:57;;;;;;;19.90;19.10;;;15.70;72.90;;;;;;5034351;28;20806;-46
2022/02/13 03:18:24;;;;;;;20.50;19.60;;;15.70;73.10;;;;;;5042383;28;20452;-48
2022/02/13 03:20:51;;;;;;;20.10;19.20;;;15.70;73.20;;;;;;5054133;28;20494;-48
2022/02/13 03:23:19;;;;;;;20.07;19.23;;;15.70;73.50;;;;;;5054220;28;20453;-45
2022/02/13 03:25:46;;;;;;;20.13;19.33;;;15.70;73.70;;;;;;5053376;28;20807;-45
2022/02/13 03:28:14;;;;;;;20.00;19.10;;;15.60;73.80;;;;;;5034244;28;20450;-47
2022/02/13 03:30:40;;;;;;;20.50;19.60;;;15.70;74.30;;;;;;5034110;28;20465;-45
2022/02/13 03:33:09;;;;;;;21.57;20.57;;;15.60;74.70;;;;;;5034050;28;20445;-51
2022/02/13 03:35:36;;;;;;;20.80;19.87;;;15.60;75.00;;;;;;5033875;28;20471;-47
2022/02/13 03:38:03;;;;;;;20.43;19.53;;;15.50;75.50;;;;;;5052676;28;20445;-44
2022/02/13 03:40:30;;;;;;;20.27;19.30;;;15.50;75.70;;;;;;5052996;28;20647;-49
2022/02/13 03:42:57;;;;;;;20.40;19.50;;;15.50;76.00;;;;;;5054127;28;20455;-46
2022/02/13 03:45:24;;;;;;;20.87;19.97;;;15.50;76.40;;;;;;5053590;28;20444;-46
2022/02/13 03:47:51;;;;;;;21.20;20.20;;;15.50;76.40;;;;;;5053604;28;20447;-44
2022/02/13 03:50:19;;;;;;;20.07;19.27;;;15.50;76.40;;;;;;5051532;28;20487;-44
2022/02/13 03:52:46;;;;;;;20.67;19.77;;;15.50;76.50;;;;;;5053314;28;20487;-45
2022/02/13 03:55:16;;;;;;;20.60;19.70;;;15.50;77.30;;;;;;5053444;28;20456;-44
2022/02/13 03:57:43;;;;;;;20.60;19.70;;;15.40;78.10;;;;;;5053494;28;20832;-51
2022/02/13 04:00:12;;;;;;;19.93;19.13;;;15.40;78.70;;;;;;5053300;28;20491;-46
2022/02/13 04:02:39;;;;;;;20.60;19.60;;;15.40;79.40;;;;;;5013709;28;20485;-44
2022/02/13 04:05:07;;;;;;;20.90;19.80;;;15.40;80.00;;;;;;5013790;28;20538;-48
2022/02/13 04:07:38;;;;;;;21.30;20.17;;;15.40;80.50;;;;;;5013418;28;20446;-45
2022/02/13 04:10:05;;;;;;;20.70;19.80;;;15.40;80.80;;;;;;5013574;28;20976;-44
2022/02/13 04:12:32;;;;;;;21.87;20.87;;;15.40;81.00;;;;;;5019267;28;20449;-47
2022/02/13 04:14:59;;;;;;;20.63;19.73;;;15.40;81.40;;;;;;5053593;28;20448;-44
2022/02/13 04:17:26;;;;;;;20.40;19.50;;;15.40;81.90;;;;;;5051134;28;20448;-45
2022/02/13 04:19:53;;;;;;;20.70;19.70;;;15.40;82.30;;;;;;5033082;28;20493;-47
2022/02/13 04:22:20;;;;;;;20.60;19.60;;;15.40;82.70;;;;;;5033239;28;20445;-44
2022/02/13 04:24:48;;;;;;;20.70;19.80;;;15.40;83.20;;;;;;5035102;28;20823;-45
2022/02/13 04:27:14;;;;;;;21.10;20.07;;;15.30;83.50;;;;;;5052701;28;20441;-45
2022/02/13 04:29:41;;;;;;;20.90;19.90;;;15.30;83.60;;;;;;5052893;28;20460;-44
2022/02/13 04:32:08;;;;;;;20.90;20.00;;;15.40;83.90;;;;;;5052747;28;20444;-44
2022/02/13 04:34:35;;;;;;;20.77;19.87;;;15.30;84.20;;;;;;5053060;28;20441;-45
2022/02/13 04:37:02;;;;;;;20.90;20.00;;;15.40;84.40;;;;;;5047880;28;20986;-45
2022/02/13 04:39:28;;;;;;;20.67;19.77;;;15.30;84.60;;;;;;5051865;28;20970;-46
2022/02/13 04:41:56;;;;;;;21.07;20.07;;;15.30;84.90;;;;;;5052669;28;20444;-44
2022/02/13 04:44:23;;;;;;;21.00;20.00;;;15.30;85.40;;;;;;5052716;28;20455;-47
2022/02/13 04:46:50;;;;;;;21.07;20.13;;;15.30;85.60;;;;;;5052308;28;20479;-50
2022/02/13 04:49:17;;;;;;;20.80;19.90;;;15.30;85.80;;;;;;5047192;28;20472;-46
2022/02/13 04:51:43;;;;;;;21.40;20.50;;;15.30;86.50;;;;;;5051986;28;20440;-46
2022/02/13 04:54:10;;;;;;;20.50;19.60;;;15.30;86.50;;;;;;5051869;28;20448;-45
2022/02/13 04:56:37;;;;;;;20.70;19.80;;;15.30;86.60;;;;;;5052156;28;20445;-43
2022/02/13 04:59:05;;;;;;;21.23;20.23;;;15.30;86.60;;;;;;5052221;28;20460;-44
2022/02/13 05:01:32;;;;;;;21.03;20.13;;;15.30;86.80;;;;;;5043606;28;20478;-45
2022/02/13 05:03:58;;;;;;;21.67;20.67;;;15.30;86.90;;;;;;5032497;28;20454;-45
2022/02/13 05:06:25;;;;;;;21.50;20.50;;;15.30;87.10;;;;;;5032128;28;20450;-45
2022/02/13 05:08:53;;;;;;;20.67;19.77;;;15.30;87.70;;;;;;5032235;28;20469;-48
2022/02/13 05:11:20;;;;;;;21.37;20.37;;;15.30;87.70;;;;;;5032436;28;20472;-45
2022/02/13 05:13:47;;;;;;;21.97;20.97;;;15.30;87.80;;;;;;5043299;28;20460;-44
2022/02/13 05:16:15;;;;;;;21.83;20.73;;;15.30;88.00;;;;;;5051443;28;20452;-49
2022/02/13 05:18:42;;;;;;;20.63;19.73;;;15.30;88.00;;;;;;5051925;28;20463;-48
2022/02/13 05:21:08;;;;;;;20.80;19.80;;;15.20;88.20;;;;;;5051876;28;20484;-49
2022/02/13 05:23:35;;;;;;;21.60;20.50;;;15.20;88.60;;;;;;5051953;28;20444;-44
2022/02/13 05:26:02;;;;;;;21.47;20.50;;;15.20;88.50;;;;;;5039383;28;20449;-47
2022/02/13 05:28:29;;;;;;;21.10;20.20;;;15.20;88.70;;;;;;5032026;28;20931;-46
2022/02/13 05:30:55;;;;;;;21.00;20.10;;;15.20;89.50;;;;;;5031957;28;20452;-46
2022/02/13 05:33:23;;;;;;;21.00;20.10;;;15.20;89.20;;;;;;5036329;28;20440;-42
2022/02/13 05:35:50;;;;;;;20.90;20.00;;;15.20;89.40;;;;;;5051698;28;20926;-42
2022/02/13 05:38:17;;;;;;;21.07;20.07;;;15.20;89.20;;;;;;5051698;28;20449;-42
2022/02/13 05:40:44;;;;;;;21.00;20.00;;;15.20;89.20;;;;;;5051722;28;20499;-45
2022/02/13 05:43:11;;;;;;;20.90;20.00;;;15.20;89.40;;;;;;5049643;28;20448;-42
2022/02/13 05:45:37;;;;;;;21.23;20.27;;;15.20;90.00;;;;;;5031823;28;20441;-42
2022/02/13 05:48:05;;;;;;;20.60;19.70;;;15.20;90.00;;;;;;5031688;28;20450;-43
2022/02/13 05:50:33;;;;;;;21.90;20.90;;;15.40;91.30;;;;;;5031874;28;20506;-43
2022/02/13 05:52:59;;;;;;;21.80;20.80;;;15.90;90.50;;;;;;5031790;28;20445;-44
2022/02/13 05:55:26;;;;;;;21.33;20.37;;;16.20;86.20;;;;;;5034515;28;20448;-42
2022/02/13 05:57:53;;;;;;;20.70;19.80;;;16.50;82.80;;;;;;5031692;28;20450;-43
2022/02/13 06:00:20;;;;;;;20.77;19.87;;;16.80;80.30;;;;;;5031508;28;20485;-43
2022/02/13 06:02:47;;;;;;;22.27;21.27;;;17.00;78.10;;;;;;5031611;28;20808;-43
2022/02/13 06:05:14;;;;;;;20.97;20.07;;;17.20;75.80;;;;;;5034585;28;20446;-42
2022/02/13 06:07:44;;;;;;;22.20;21.20;;;17.30;73.50;;;;;;5040264;28;20942;-43
2022/02/13 06:10:12;;;;;;;21.77;20.87;;;17.40;71.70;;;;;;5055474;28;20463;-43
2022/02/13 06:12:39;;;;;;;21.40;20.40;;;17.60;70.30;;;;;;5055761;28;20440;-43
2022/02/13 06:15:08;;;;;;;21.50;20.50;;;17.70;69.00;;;;;;5055535;28;20829;-43
2022/02/13 06:17:35;;;;;;;20.93;19.93;;;17.80;67.70;;;;;;5055335;28;20451;-43
2022/02/13 06:20:01;;;;;;;20.87;19.97;;;17.80;66.60;;;;;;5046333;28;20481;-42
2022/02/13 06:22:28;;;;;;;22.70;21.60;;;17.80;65.70;;;;;;5035703;28;20445;-43
2022/02/13 06:24:56;;;;;;;22.53;21.53;;;17.90;64.90;;;;;;5035388;28;20449;-43
2022/02/13 06:27:23;;;;;;;23.50;22.40;;;18.00;64.10;;;;;;5035407;28;20810;-43
2022/02/13 06:29:50;;;;;;;22.07;21.07;;;18.00;64.10;;;;;;5054995;28;20479;-43
2022/02/13 06:32:16;;;;;;;26.03;24.83;;;18.00;62.50;;;;;;5055254;28;20477;-43
2022/02/13 06:34:43;;;;;;;26.63;25.60;;;18.10;62.20;;;;;;5051838;28;20449;-43
2022/02/13 06:37:10;;;;;;;32.30;31.00;;;18.10;61.60;;;;;;5055402;28;20456;-43
2022/02/13 06:39:37;;;;;;;26.20;25.20;;;18.10;61.10;;;;;;5055177;28;20475;-43
2022/02/13 06:42:06;;;;;;;28.57;27.47;;;18.10;60.60;;;;;;5054923;28;20475;-43
2022/02/13 06:44:33;;;;;;;29.60;28.40;;;18.10;60.30;;;;;;5053331;28;20448;-43
2022/02/13 06:47:00;;;;;;;30.77;29.57;;;18.10;60.00;;;;;;5032107;28;20453;-43
2022/02/13 06:49:28;;;;;;;30.70;29.50;;;18.10;59.80;;;;;;5022939;28;20499;-43
2022/02/13 06:51:57;;;;;;;31.70;30.40;;;18.10;59.80;;;;;;5022800;28;21010;-44
2022/02/13 06:54:24;;;;;;;30.30;29.10;;;18.20;60.10;;;;;;5022581;28;20449;-44
2022/02/13 06:56:52;;;;;;;29.70;28.50;;;18.20;60.40;;;;;;5023656;28;20475;-44
2022/02/13 06:59:22;;;;;;;29.90;28.60;;;18.20;60.30;;;;;;5042790;28;20500;-44
2022/02/13 07:01:49;;;;;;;30.77;29.40;;;18.20;60.80;;;;;;5042556;28;20845;-44
2022/02/13 07:04:17;;;;;;;29.53;28.23;;;18.20;61.40;;;;;;5042594;28;20969;-45
2022/02/13 07:06:45;;;;;;;28.47;27.30;;;18.20;61.80;;;;;;5042310;28;20733;-45
2022/02/13 07:09:12;;;;;;;30.60;29.30;;;18.20;62.10;;;;;;5038592;28;20472;-47
2022/02/13 07:11:40;;;;;;;30.57;29.27;;;18.20;62.70;;;;;;5022600;28;20456;-45
2022/02/13 07:14:07;;;;;;;31.63;30.33;;;18.20;62.30;;;;;;5022360;28;20449;-45
2022/02/13 07:16:36;;;;;;;30.30;29.00;;;18.20;62.20;;;;;;5020936;28;20460;-47
2022/02/13 07:19:02;;;;;;;30.50;29.07;;;18.20;62.20;;;;;;5022476;28;21040;-45
2022/02/13 07:21:29;;;;;;;29.67;28.40;;;18.20;62.10;;;;;;5030988;28;20487;-45
2022/02/13 07:23:56;;;;;;;29.63;28.40;;;18.20;62.10;;;;;;5042126;28;20463;-45
2022/02/13 07:26:24;;;;;;;29.53;28.23;;;18.20;62.20;;;;;;5042034;28;20452;-45
2022/02/13 07:29:02;;;;;;;28.60;27.40;;;18.20;62.10;;;;;;5042077;28;20876;-46
2022/02/13 07:31:29;;;;;;;30.10;28.80;;;18.20;62.30;;;;;;5042281;28;20459;-45
2022/02/13 07:33:58;;;;;;;27.47;26.37;;;18.20;62.40;;;;;;5028449;28;20453;-45
2022/02/13 07:36:25;;;;;;;28.30;27.10;;;18.20;62.20;;;;;;5022037;28;20499;-46
2022/02/13 07:38:53;;;;;;;27.50;26.37;;;18.20;62.40;;;;;;5022054;28;20473;-46
2022/02/13 07:41:20;;;;;;;28.20;27.10;;;18.20;62.10;;;;;;5022172;28;20998;-47
2022/02/13 07:43:47;;;;;;;28.93;27.63;;;18.20;62.20;;;;;;5022012;28;20519;-46
2022/02/13 07:46:14;;;;;;;30.50;29.20;;;18.20;62.40;;;;;;5038325;28;20457;-46
2022/02/13 07:48:41;;;;;;;28.13;26.93;;;18.20;62.70;;;;;;5041545;28;20564;-45
2022/02/13 07:51:10;;;;;;;27.23;25.93;;;18.20;62.90;;;;;;5042240;28;20445;-44
2022/02/13 07:53:37;;;;;;;25.63;24.53;;;18.10;62.80;;;;;;5041806;28;20518;-44
2022/02/13 07:56:05;;;;;;;25.50;24.40;;;18.10;62.80;;;;;;5041475;28;20926;-45
2022/02/13 07:58:32;;;;;;;28.30;27.10;;;18.10;62.90;;;;;;5022458;28;20895;-45
2022/02/13 08:01:00;;;;;;;25.00;24.00;;;18.10;62.70;;;;;;5021746;28;21025;-46
2022/02/13 08:03:27;;;;;;;24.93;23.93;;;18.10;62.70;;;;;;5021790;28;20445;-46
2022/02/13 08:05:54;;;;;;;24.63;23.63;;;18.10;62.90;;;;;;5021478;28;20858;-46
2022/02/13 08:08:22;;;;;;;23.53;22.53;;;18.10;63.50;;;;;;5021987;28;20449;-45
2022/02/13 08:10:49;;;;;;;24.43;23.43;;;18.10;63.40;;;;;;5041255;28;20483;-45
2022/02/13 08:13:17;;;;;;;24.60;23.60;;;18.10;63.30;;;;;;5035498;28;20558;-44
2022/02/13 08:15:44;;;;;;;24.57;23.57;;;18.10;63.10;;;;;;5021284;28;20456;-44
2022/02/13 08:18:13;;;;;;;23.60;22.70;;;18.10;62.70;;;;;;5021679;28;20478;-45
2022/02/13 08:20:40;;;;;;;25.30;24.20;;;18.10;63.10;;;;;;5021168;28;20823;-45
2022/02/13 08:23:08;;;;;;;26.83;25.73;;;18.10;63.20;;;;;;5021180;28;20456;-44
2022/02/13 08:25:36;;;;;;;25.20;24.20;;;18.10;63.30;;;;;;5040038;28;20965;-46
2022/02/13 08:28:05;;;;;;;24.93;23.93;;;18.00;63.80;;;;;;5040849;28;20452;-45
2022/02/13 08:30:31;;;;;;;25.30;24.20;;;18.00;64.00;;;;;;5041357;28;20479;-46
2022/02/13 08:32:59;;;;;;;25.60;24.53;;;18.00;64.40;;;;;;5029542;28;20464;-48
2022/02/13 08:35:27;;;;;;;25.00;23.90;;;18.00;64.10;;;;;;5020763;28;20457;-46
2022/02/13 08:37:54;;;;;;;25.47;24.47;;;18.00;63.90;;;;;;5021036;28;20445;-45
2022/02/13 08:40:21;;;;;;;23.97;22.97;;;18.00;63.90;;;;;;5021020;28;21064;-45
2022/02/13 08:42:49;;;;;;;24.73;23.73;;;18.00;63.80;;;;;;5030805;28;20770;-46
2022/02/13 08:45:15;;;;;;;25.70;24.70;;;18.00;63.70;;;;;;5040740;28;20469;-44
2022/02/13 08:47:42;;;;;;;23.40;22.50;;;18.00;63.90;;;;;;5040638;28;20754;-45
2022/02/13 08:50:10;;;;;;;26.07;25.07;;;18.00;64.10;;;;;;5040617;28;20504;-45
2022/02/13 08:52:36;;;;;;;25.60;24.50;;;18.00;63.80;;;;;;5040471;28;20525;-45
2022/02/13 08:55:04;;;;;;;24.10;23.10;;;18.00;63.70;;;;;;5030292;28;20449;-45
2022/02/13 08:57:31;;;;;;;26.93;25.83;;;18.10;63.50;;;;;;5020600;28;20453;-45
2022/02/13 08:59:59;;;;;;;26.27;25.20;;;18.20;63.00;;;;;;5020668;28;20476;-44
2022/02/13 09:02:26;;;;;;;26.90;25.80;;;18.30;62.50;;;;;;5020413;28;20492;-44
2022/02/13 09:04:53;;;;;;;25.90;24.90;;;18.40;61.60;;;;;;5020625;28;20460;-44
2022/02/13 09:07:21;;;;;;;25.97;24.97;;;18.50;61.10;;;;;;5033184;28;20602;-44
2022/02/13 09:09:48;;;;;;;26.20;25.20;;;18.50;60.40;;;;;;5040341;28;20498;-43
2022/02/13 09:12:19;;;;;;;25.57;24.47;;;18.60;60.50;;;;;;5039759;28;21000;-44
2022/02/13 09:14:46;;;;;;;23.67;22.77;;;18.60;60.50;;;;;;5040162;28;20976;-43
2022/02/13 09:17:15;;;;;;;25.07;24.07;;;18.70;60.30;;;;;;5039929;28;20531;-43
2022/02/13 09:19:42;;;;;;;25.27;24.27;;;18.70;60.10;;;;;;5022716;28;21365;-43
2022/02/13 09:22:10;;;;;;;24.57;23.57;;;18.70;60.00;;;;;;5020185;28;20567;-43
2022/02/13 09:24:36;;;;;;;23.87;22.87;;;18.80;59.90;;;;;;5020154;28;20543;-44
2022/02/13 09:27:04;;;;;;;25.57;24.57;;;18.80;59.80;;;;;;5019983;28;20445;-44
2022/02/13 09:29:30;;;;;;;23.23;22.23;;;18.80;59.70;;;;;;5020366;28;20437;-44
2022/02/13 09:31:57;;;;;;;24.50;23.50;;;18.80;59.60;;;;;;5023642;28;20248;-43
2022/02/13 09:34:28;;;;;;;23.20;22.10;;;18.80;59.30;;;;;;5031366;28;20459;-43
2022/02/13 09:36:55;;;;;;;25.10;24.03;;;18.80;59.00;;;;;;5039718;28;20957;-44
2022/02/13 09:39:23;;;;;;;23.67;22.67;;;18.80;58.90;;;;;;5039534;28;20488;-44
2022/02/13 09:41:50;;;;;;;23.20;22.30;;;18.80;58.70;;;;;;5036685;28;20484;-44
2022/02/13 09:44:17;;;;;;;23.10;22.20;;;18.80;58.60;;;;;;5020195;28;20460;-44
2022/02/13 09:46:44;;;;;;;22.90;22.00;;;18.90;58.60;;;;;;5019753;28;21080;-45
2022/02/13 09:49:12;;;;;;;24.00;23.10;;;18.80;58.50;;;;;;5019712;28;20484;-44
2022/02/13 09:51:41;;;;;;;23.80;22.97;;;18.80;58.40;;;;;;5021069;28;20510;-44
2022/02/13 09:54:09;;;;;;;22.90;22.10;;;18.80;58.30;;;;;;5039520;28;20456;-44
2022/02/13 09:56:36;;;;;;;22.00;21.20;;;18.80;58.30;;;;;;5039594;28;20940;-43
2022/02/13 09:59:04;;;;;;;21.80;21.00;;;18.80;58.20;;;;;;5039228;28;20579;-44
2022/02/13 10:01:37;;;;;;;22.70;21.80;;;18.90;58.20;;;;;;5039320;28;21132;-44
2022/02/13 10:04:05;;;;;;;23.27;22.37;;;18.90;58.10;;;;;;5032423;28;20454;-44
2022/02/13 10:06:35;;;;;;;23.60;22.70;;;18.90;58.00;;;;;;5019576;28;20555;-44
2022/02/13 10:09:05;;;;;;;24.23;23.33;;;18.90;57.90;;;;;;5019514;28;20501;-45
2022/02/13 10:11:34;;;;;;;24.33;23.33;;;18.90;57.80;;;;;;5019504;28;21037;-44
2022/02/13 10:14:03;;;;;;;25.80;24.70;;;18.90;57.70;;;;;;5019579;28;20792;-44
2022/02/13 10:16:31;;;;;;;25.53;24.53;;;18.90;57.60;;;;;;5031521;28;20837;-44
2022/02/13 10:19:00;;;;;;;25.20;24.20;;;18.90;57.50;;;;;;5030863;28;20480;-44
2022/02/13 10:21:31;;;;;;;25.80;24.70;;;19.00;57.40;;;;;;5019757;28;20515;-44
2022/02/13 10:24:28;;;;;;;26.83;25.43;;;19.00;57.40;;;;;;5019567;28;20450;-45
2022/02/13 10:27:07;;;;;;;24.60;23.60;;;19.10;57.30;;;;;;5019385;28;20452;-45
2022/02/13 10:29:36;;;;;;;25.50;24.40;;;19.10;57.10;;;;;;5031915;28;20465;-44
2022/02/13 10:32:15;;;;;;;24.80;23.77;;;19.10;56.90;;;;;;5039405;28;20457;-45
2022/02/13 10:34:57;;;;;;;25.23;24.23;;;19.20;56.90;;;;;;5039565;28;20466;-44
2022/02/13 10:37:45;;;;;;;25.73;24.73;;;19.20;56.70;;;;;;5039224;28;20481;-44
2022/02/13 10:40:16;;;;;;;24.43;23.43;;;19.20;56.50;;;;;;5039032;28;20477;-44
2022/02/13 10:42:43;;;;;;;25.80;24.70;;;19.30;56.40;;;;;;5038968;28;21088;-44
2022/02/13 10:45:21;;;;;;;25.57;24.57;;;19.30;56.30;;;;;;5037131;28;20444;-44
2022/02/13 10:47:50;;;;;;;26.30;25.20;;;19.30;56.50;;;;;;5039082;28;21149;-42
2022/02/13 10:50:19;;;;;;;24.53;23.53;;;19.60;58.20;;;;;;5040537;28;21068;-44
2022/02/13 10:52:47;;;;;;;25.40;24.40;;;20.10;57.40;;;;;;5042678;28;20518;-45
2022/02/13 10:55:16;;;;;;;25.40;24.40;;;20.40;56.10;;;;;;5042399;28;20448;-44
2022/02/13 10:57:44;;;;;;;26.47;25.40;;;20.70;55.70;;;;;;5025006;28;20540;-44
2022/02/13 11:00:12;;;;;;;23.60;22.70;;;21.20;55.10;;;;;;5023036;28;20486;-44
2022/02/13 11:02:40;;;;;;;25.30;24.20;;;21.50;53.90;;;;;;5023385;28;20517;-43
2022/02/13 11:05:09;;;;;;;25.43;24.43;;;21.80;52.90;;;;;;5023066;28;20511;-44
2022/02/13 11:07:39;;;;;;;24.93;23.93;;;22.00;52.20;;;;;;5023175;28;20755;-44
2022/02/13 11:10:09;;;;;;;25.97;24.87;;;22.20;51.50;;;;;;5023638;28;20477;-43
2022/02/13 11:12:37;;;;;;;27.00;25.90;;;22.40;50.90;;;;;;5022954;28;20456;-43
2022/02/13 11:15:18;;;;;;;25.70;24.70;;;22.60;50.40;;;;;;5022949;28;20966;-43
2022/02/13 11:17:46;;;;;;;25.80;24.70;;;22.80;49.90;;;;;;5022511;28;20457;-44
2022/02/13 11:20:14;;;;;;;25.50;24.50;;;22.80;49.40;;;;;;5029115;28;20499;-43
2022/02/13 11:22:42;;;;;;;25.07;24.07;;;23.00;49.30;;;;;;5042713;28;20530;-43
2022/02/13 11:25:10;;;;;;;25.67;24.57;;;23.40;49.00;;;;;;5031279;28;20531;-46
2022/02/13 11:27:57;;;;;;;26.40;25.40;;;23.70;48.30;;;;;;5026872;28;20451;-44
2022/02/13 11:30:44;;;;;;;24.20;23.23;;;24.10;47.20;;;;;;5041929;28;20863;-45
2022/02/13 11:33:12;;;;;;;24.60;23.60;;;24.30;46.50;;;;;;5041961;28;20510;-44
2022/02/13 11:35:57;;;;;;;24.83;23.83;;;24.50;46.10;;;;;;5041717;28;20449;-44
2022/02/13 11:38:53;;;;;;;25.43;24.23;;;24.70;45.60;;;;;;5031556;28;20504;-44
2022/02/13 11:41:22;;;;;;;27.13;26.03;;;24.80;45.20;;;;;;5021850;28;20485;-43
2022/02/13 11:44:02;;;;;;;26.97;25.87;;;25.00;45.50;;;;;;5021936;28;20530;-46
2022/02/13 11:46:57;;;;;;;27.60;26.50;;;25.60;44.40;;;;;;5021645;28;20452;-45
2022/02/13 11:49:23;;;;;;;25.67;24.57;;;25.90;43.50;;;;;;5019347;28;20488;-44
2022/02/13 11:52:01;;;;;;;27.17;26.07;;;26.60;42.60;;;;;;5031652;28;20446;-44
2022/02/13 11:54:56;;;;;;;25.65;24.65;;;26.80;41.70;;;;;;5021559;28;20436;-44
2022/02/13 11:57:26;;;;;;;28.43;27.23;;;26.90;41.20;;;;;;5021519;28;20551;-42
2022/02/13 12:00:12;;;;;;;27.30;26.20;;;27.10;40.80;;;;;;5021834;28;21762;-41
2022/02/13 12:02:44;;;;;;;26.13;25.13;;;27.40;40.40;;;;;;5035728;28;20480;-42
2022/02/13 12:05:17;;;;;;;27.57;26.40;;;27.50;39.90;;;;;;5041336;28;21070;-41
2022/02/13 12:08:01;;;;;;;27.50;26.40;;;28.00;39.50;;;;;;5041490;28;20453;-42
2022/02/13 12:10:30;;;;;;;26.67;25.67;;;28.50;38.70;;;;;;5041257;28;20472;-42
2022/02/13 12:13:08;;;;;;;28.30;27.20;;;28.90;38.00;;;;;;5040094;28;21043;-43
2022/02/13 12:15:37;;;;;;;27.67;26.57;;;29.20;37.40;;;;;;5021241;28;20929;-41
2022/02/13 12:18:11;;;;;;;24.77;23.77;;;29.30;37.10;;;;;;5021463;28;20570;-42
2022/02/13 12:20:39;;;;;;;24.97;23.97;;;29.10;36.80;;;;;;5021339;28;20560;-42
2022/02/13 12:23:07;;;;;;;26.40;25.20;;;28.90;37.10;;;;;;5021614;28;20484;-41
2022/02/13 12:25:36;;;;;;;27.90;26.80;;;29.20;37.20;;;;;;5028730;28;20448;-41
2022/02/13 12:28:04;;;;;;;27.50;26.40;;;29.60;36.60;;;;;;5025622;28;20568;-41
2022/02/13 12:30:32;;;;;;;26.93;25.83;;;29.90;36.20;;;;;;5020955;28;20468;-41
2022/02/13 12:33:02;;;;;;;27.87;26.77;;;29.90;35.70;;;;;;5021034;28;20445;-41
2022/02/13 12:35:31;;;;;;;23.43;22.53;;;29.70;35.70;;;;;;5020633;28;20449;-42